Time;durP1;ratioP1;P1;durP2;ratioP2;P2;SDS_P1;SDS_P2;PMS_P1;PMS_P2;Temp;Humidity;BMP_temperature;BMP_pressure;BME280_temperature;BME280_humidity;BME280_pressure;Samples;Min_cycle;Max_cycle;Signal;HPM_P1;HPM_P2
2022/11/29 00:00:03;;;;;;;1.7;1.7;;;;;;;7.8;100.0;101240;;;;
2022/11/29 00:01:00;;;;;;;1.7;1.7;;;;;;;7.8;100.0;101240;;;;
2022/11/29 00:02:00;;;;;;;1.7;1.7;;;;;;;7.8;100.0;101230;;;;
2022/11/29 00:03:00;;;;;;;1.7;1.7;;;;;;;7.8;100.0;101230;;;;
2022/11/29 00:04:00;;;;;;;1.7;1.7;;;;;;;7.8;100.0;101230;;;;
2022/11/29 00:05:00;;;;;;;1.7;1.7;;;;;;;7.8;100.0;101230;;;;
2022/11/29 00:06:04;;;;;;;1.7;1.7;;;;;;;7.9;100.0;101240;;;;
2022/11/29 00:07:00;;;;;;;1.7;1.7;;;;;;;7.9;100.0;101240;;;;
2022/11/29 00:08:00;;;;;;;1.7;1.7;;;;;;;7.8;100.0;101240;;;;
2022/11/29 00:09:02;;;;;;;1.7;1.7;;;;;;;7.8;100.0;101230;;;;
2022/11/29 00:10:00;;;;;;;1.7;1.7;;;;;;;7.8;100.0;101230;;;;
2022/11/29 00:11:04;;;;;;;1.7;1.7;;;;;;;7.9;100.0;101240;;;;
2022/11/29 00:13:00;;;;;;;1.7;1.7;;;;;;;7.9;100.0;101240;;;;
2022/11/29 00:14:00;;;;;;;1.7;1.7;;;;;;;7.8;100.0;101240;;;;
2022/11/29 00:15:00;;;;;;;1.7;1.7;;;;;;;7.8;100.0;101240;;;;
2022/11/29 00:16:01;;;;;;;1.7;1.7;;;;;;;7.9;100.0;101240;;;;
2022/11/29 00:17:00;;;;;;;1.7;1.7;;;;;;;7.9;100.0;101240;;;;
2022/11/29 00:18:00;;;;;;;1.7;1.7;;;;;;;7.9;100.0;101240;;;;
2022/11/29 00:19:00;;;;;;;1.7;1.7;;;;;;;7.9;100.0;101240;;;;
2022/11/29 00:20:00;;;;;;;1.7;1.7;;;;;;;7.8;100.0;101240;;;;
2022/11/29 00:21:04;;;;;;;1.7;1.7;;;;;;;7.7;100.0;101240;;;;
2022/11/29 00:22:00;;;;;;;1.7;1.7;;;;;;;7.7;100.0;101240;;;;
2022/11/29 00:23:00;;;;;;;1.7;1.7;;;;;;;7.7;100.0;101240;;;;
2022/11/29 00:24:00;;;;;;;1.7;1.7;;;;;;;7.7;100.0;101240;;;;
2022/11/29 00:25:00;;;;;;;1.7;1.7;;;;;;;7.7;100.0;101240;;;;
2022/11/29 00:26:02;;;;;;;3.0;2.7;;;;;;;7.8;100.0;101240;;;;
2022/11/29 00:27:00;;;;;;;3.0;2.7;;;;;;;7.8;100.0;101240;;;;
2022/11/29 00:28:00;;;;;;;3.0;2.7;;;;;;;7.7;100.0;101240;;;;
2022/11/29 00:29:00;;;;;;;3.0;2.7;;;;;;;7.7;100.0;101240;;;;
2022/11/29 00:30:00;;;;;;;3.0;2.7;;;;;;;7.7;100.0;101240;;;;
2022/11/29 00:31:00;;;;;;;3.0;2.7;;;;;;;7.7;100.0;101240;;;;
2022/11/29 00:32:00;;;;;;;3.0;2.7;;;;;;;7.7;100.0;101240;;;;
2022/11/29 00:33:01;;;;;;;3.0;2.7;;;;;;;7.7;100.0;101240;;;;
2022/11/29 00:34:01;;;;;;;3.0;2.7;;;;;;;7.7;100.0;101240;;;;
2022/11/29 00:35:05;;;;;;;3.0;2.7;;;;;;;7.7;100.0;101240;;;;
2022/11/29 00:36:00;;;;;;;3.0;2.7;;;;;;;7.7;100.0;101240;;;;
2022/11/29 00:37:00;;;;;;;3.0;2.7;;;;;;;7.7;100.0;101240;;;;
2022/11/29 00:38:00;;;;;;;3.0;2.7;;;;;;;7.7;100.0;101240;;;;
2022/11/29 00:39:00;;;;;;;3.0;2.7;;;;;;;7.7;100.0;101240;;;;
2022/11/29 00:40:00;;;;;;;3.0;2.7;;;;;;;7.7;100.0;101250;;;;
2022/11/29 00:41:00;;;;;;;3.0;2.7;;;;;;;7.7;100.0;101250;;;;
2022/11/29 00:42:00;;;;;;;3.0;2.7;;;;;;;7.7;100.0;101250;;;;
2022/11/29 00:43:00;;;;;;;3.0;2.7;;;;;;;7.7;100.0;101250;;;;
2022/11/29 00:44:00;;;;;;;3.0;2.7;;;;;;;7.7;100.0;101250;;;;
2022/11/29 00:45:00;;;;;;;3.0;2.7;;;;;;;7.7;100.0;101250;;;;
2022/11/29 00:46:00;;;;;;;1.6;1.6;;;;;;;7.7;100.0;101250;;;;
2022/11/29 00:47:00;;;;;;;1.6;1.6;;;;;;;7.7;100.0;101250;;;;
2022/11/29 00:48:00;;;;;;;1.6;1.6;;;;;;;7.7;100.0;101250;;;;
2022/11/29 00:49:00;;;;;;;1.6;1.6;;;;;;;7.7;100.0;101250;;;;
2022/11/29 00:50:00;;;;;;;1.6;1.6;;;;;;;7.7;100.0;101240;;;;
2022/11/29 00:51:00;;;;;;;1.6;1.6;;;;;;;7.7;100.0;101240;;;;
2022/11/29 00:52:00;;;;;;;1.6;1.6;;;;;;;7.7;100.0;101250;;;;
2022/11/29 00:53:00;;;;;;;1.6;1.6;;;;;;;7.7;100.0;101250;;;;
2022/11/29 00:54:00;;;;;;;1.6;1.6;;;;;;;7.7;100.0;101240;;;;
2022/11/29 00:55:00;;;;;;;1.6;1.6;;;;;;;7.7;100.0;101240;;;;
2022/11/29 00:56:00;;;;;;;1.6;1.6;;;;;;;7.7;100.0;101240;;;;
2022/11/29 00:57:00;;;;;;;1.6;1.6;;;;;;;7.7;100.0;101240;;;;
2022/11/29 00:58:00;;;;;;;1.6;1.6;;;;;;;7.6;100.0;101250;;;;
2022/11/29 00:59:00;;;;;;;1.6;1.6;;;;;;;7.6;100.0;101250;;;;
2022/11/29 01:00:00;;;;;;;1.6;1.6;;;;;;;7.6;100.0;101240;;;;
2022/11/29 01:01:00;;;;;;;1.6;1.6;;;;;;;7.6;100.0;101240;;;;
2022/11/29 01:02:00;;;;;;;1.6;1.6;;;;;;;7.5;100.0;101250;;;;
2022/11/29 01:03:00;;;;;;;1.6;1.6;;;;;;;7.5;100.0;101250;;;;
2022/11/29 01:04:00;;;;;;;1.6;1.6;;;;;;;7.5;100.0;101250;;;;
2022/11/29 01:05:00;;;;;;;1.6;1.6;;;;;;;7.5;100.0;101250;;;;
2022/11/29 01:06:02;;;;;;;1.5;1.5;;;;;;;7.5;100.0;101250;;;;
2022/11/29 01:07:00;;;;;;;1.5;1.5;;;;;;;7.5;100.0;101250;;;;
2022/11/29 01:08:00;;;;;;;1.5;1.5;;;;;;;7.5;100.0;101250;;;;
2022/11/29 01:09:00;;;;;;;1.5;1.5;;;;;;;7.5;100.0;101250;;;;
2022/11/29 01:10:00;;;;;;;1.5;1.5;;;;;;;7.5;100.0;101250;;;;
2022/11/29 01:11:10;;;;;;;1.5;1.5;;;;;;;7.5;100.0;101260;;;;
2022/11/29 01:12:00;;;;;;;1.5;1.5;;;;;;;7.5;100.0;101260;;;;
2022/11/29 01:13:00;;;;;;;1.5;1.5;;;;;;;7.5;100.0;101260;;;;
2022/11/29 01:14:01;;;;;;;1.5;1.5;;;;;;;7.5;100.0;101250;;;;
2022/11/29 01:15:00;;;;;;;1.5;1.5;;;;;;;7.5;100.0;101250;;;;
2022/11/29 01:16:00;;;;;;;1.5;1.5;;;;;;;7.5;100.0;101250;;;;
2022/11/29 01:17:00;;;;;;;1.5;1.5;;;;;;;7.5;100.0;101250;;;;
2022/11/29 01:18:00;;;;;;;1.5;1.5;;;;;;;7.4;100.0;101250;;;;
2022/11/29 01:19:00;;;;;;;1.5;1.5;;;;;;;7.4;100.0;101250;;;;
2022/11/29 01:20:00;;;;;;;1.5;1.5;;;;;;;7.4;100.0;101250;;;;
2022/11/29 01:21:01;;;;;;;1.5;1.5;;;;;;;7.4;100.0;101250;;;;
2022/11/29 01:22:00;;;;;;;1.5;1.5;;;;;;;7.4;100.0;101250;;;;
2022/11/29 01:23:00;;;;;;;1.5;1.5;;;;;;;7.4;100.0;101250;;;;
2022/11/29 01:24:00;;;;;;;1.5;1.5;;;;;;;7.4;100.0;101250;;;;
2022/11/29 01:25:00;;;;;;;1.5;1.5;;;;;;;7.4;100.0;101250;;;;
2022/11/29 01:26:02;;;;;;;2.3;2.2;;;;;;;7.4;100.0;101250;;;;
2022/11/29 01:27:00;;;;;;;2.3;2.2;;;;;;;7.4;100.0;101250;;;;
2022/11/29 01:28:00;;;;;;;2.3;2.2;;;;;;;7.4;100.0;101250;;;;
2022/11/29 01:29:00;;;;;;;2.3;2.2;;;;;;;7.4;100.0;101250;;;;
2022/11/29 01:30:00;;;;;;;2.3;2.2;;;;;;;7.4;100.0;101250;;;;
2022/11/29 01:31:07;;;;;;;2.3;2.2;;;;;;;7.4;100.0;101250;;;;
2022/11/29 01:32:00;;;;;;;2.3;2.2;;;;;;;7.4;100.0;101250;;;;
2022/11/29 01:33:00;;;;;;;2.3;2.2;;;;;;;7.4;100.0;101250;;;;
2022/11/29 01:34:01;;;;;;;2.3;2.2;;;;;;;7.4;100.0;101260;;;;
2022/11/29 01:35:00;;;;;;;2.3;2.2;;;;;;;7.4;100.0;101260;;;;
2022/11/29 01:36:00;;;;;;;2.3;2.2;;;;;;;7.4;100.0;101250;;;;
2022/11/29 01:37:00;;;;;;;2.3;2.2;;;;;;;7.4;100.0;101250;;;;
2022/11/29 01:38:00;;;;;;;2.3;2.2;;;;;;;7.4;100.0;101260;;;;
2022/11/29 01:39:01;;;;;;;2.3;2.2;;;;;;;7.4;100.0;101260;;;;
2022/11/29 01:40:00;;;;;;;2.3;2.2;;;;;;;7.3;100.0;101260;;;;
2022/11/29 01:41:00;;;;;;;2.3;2.2;;;;;;;7.3;100.0;101260;;;;
2022/11/29 01:42:01;;;;;;;2.3;2.2;;;;;;;7.3;100.0;101260;;;;
2022/11/29 01:43:00;;;;;;;2.3;2.2;;;;;;;7.3;100.0;101260;;;;
2022/11/29 01:44:00;;;;;;;2.3;2.2;;;;;;;7.3;100.0;101270;;;;
2022/11/29 01:45:10;;;;;;;1.8;1.8;;;;;;;7.3;100.0;101270;;;;
2022/11/29 01:46:00;;;;;;;1.8;1.8;;;;;;;7.3;100.0;101270;;;;
2022/11/29 01:47:00;;;;;;;1.8;1.8;;;;;;;7.3;100.0;101270;;;;
2022/11/29 01:48:00;;;;;;;1.8;1.8;;;;;;;7.3;100.0;101270;;;;
2022/11/29 01:49:09;;;;;;;1.8;1.8;;;;;;;7.3;100.0;101270;;;;
2022/11/29 01:50:01;;;;;;;1.8;1.8;;;;;;;7.3;100.0;101270;;;;
2022/11/29 01:51:00;;;;;;;1.8;1.8;;;;;;;7.3;100.0;101270;;;;
2022/11/29 01:52:04;;;;;;;1.8;1.8;;;;;;;7.3;100.0;101270;;;;
2022/11/29 01:53:00;;;;;;;1.8;1.8;;;;;;;7.3;100.0;101270;;;;
2022/11/29 01:54:00;;;;;;;1.8;1.8;;;;;;;7.2;100.0;101270;;;;
2022/11/29 01:55:02;;;;;;;1.8;1.8;;;;;;;7.2;100.0;101270;;;;
2022/11/29 01:56:02;;;;;;;1.8;1.8;;;;;;;7.2;100.0;101270;;;;
2022/11/29 01:57:01;;;;;;;1.8;1.8;;;;;;;7.2;100.0;101270;;;;
2022/11/29 01:58:00;;;;;;;1.8;1.8;;;;;;;7.2;100.0;101270;;;;
2022/11/29 01:59:01;;;;;;;1.8;1.8;;;;;;;7.2;100.0;101270;;;;
2022/11/29 02:00:05;;;;;;;1.8;1.8;;;;;;;7.2;100.0;101270;;;;
2022/11/29 02:01:00;;;;;;;1.8;1.8;;;;;;;7.2;100.0;101270;;;;
2022/11/29 02:02:04;;;;;;;1.8;1.8;;;;;;;7.2;100.0;101270;;;;
2022/11/29 02:03:04;;;;;;;1.8;1.8;;;;;;;7.2;100.0;101270;;;;
2022/11/29 02:04:00;;;;;;;1.8;1.8;;;;;;;7.2;100.0;101270;;;;
2022/11/29 02:05:01;;;;;;;1.4;1.4;;;;;;;7.2;100.0;101270;;;;
2022/11/29 02:06:00;;;;;;;1.4;1.4;;;;;;;7.2;100.0;101270;;;;
2022/11/29 02:07:00;;;;;;;1.4;1.4;;;;;;;7.2;100.0;101270;;;;
2022/11/29 02:08:00;;;;;;;1.4;1.4;;;;;;;7.2;100.0;101270;;;;
2022/11/29 02:09:00;;;;;;;1.4;1.4;;;;;;;7.2;100.0;101270;;;;
2022/11/29 02:10:01;;;;;;;1.4;1.4;;;;;;;7.2;100.0;101270;;;;
2022/11/29 02:11:00;;;;;;;1.4;1.4;;;;;;;7.2;100.0;101270;;;;
2022/11/29 02:12:10;;;;;;;1.4;1.4;;;;;;;7.1;100.0;101270;;;;
2022/11/29 02:13:10;;;;;;;1.4;1.4;;;;;;;7.1;100.0;101270;;;;
2022/11/29 02:14:01;;;;;;;1.4;1.4;;;;;;;7.1;100.0;101270;;;;
2022/11/29 02:15:07;;;;;;;1.4;1.4;;;;;;;7.1;100.0;101280;;;;
2022/11/29 02:16:06;;;;;;;1.4;1.4;;;;;;;7.1;100.0;101280;;;;
2022/11/29 02:17:10;;;;;;;1.4;1.4;;;;;;;7.2;100.0;101280;;;;
2022/11/29 02:18:01;;;;;;;1.4;1.4;;;;;;;7.2;100.0;101280;;;;
2022/11/29 02:19:10;;;;;;;1.4;1.4;;;;;;;7.1;100.0;101280;;;;
2022/11/29 02:20:00;;;;;;;1.4;1.4;;;;;;;7.1;100.0;101280;;;;
2022/11/29 02:21:10;;;;;;;1.4;1.4;;;;;;;7.1;100.0;101280;;;;
2022/11/29 02:22:07;;;;;;;1.4;1.4;;;;;;;7.1;100.0;101280;;;;
2022/11/29 02:23:10;;;;;;;1.4;1.4;;;;;;;7.1;100.0;101280;;;;
2022/11/29 02:24:10;;;;;;;1.4;1.4;;;;;;;7.1;100.0;101280;;;;
2022/11/29 02:25:09;;;;;;;1.4;1.4;;;;;;;7.1;100.0;101280;;;;
2022/11/29 02:26:01;;;;;;;1.4;1.4;;;;;;;7.1;100.0;101280;;;;
2022/11/29 02:27:01;;;;;;;1.4;1.4;;;;;;;7.1;100.0;101280;;;;
2022/11/29 02:28:10;;;;;;;1.4;1.4;;;;;;;7.0;100.0;101290;;;;
2022/11/29 02:29:03;;;;;;;1.4;1.4;;;;;;;7.0;100.0;101280;;;;
2022/11/29 02:30:00;;;;;;;1.4;1.4;;;;;;;7.0;100.0;101280;;;;
2022/11/29 02:31:10;;;;;;;1.4;1.4;;;;;;;7.1;100.0;101280;;;;
2022/11/29 02:32:03;;;;;;;1.4;1.4;;;;;;;7.1;100.0;101280;;;;
2022/11/29 02:33:10;;;;;;;1.4;1.4;;;;;;;7.1;100.0;101280;;;;
2022/11/29 02:34:10;;;;;;;1.4;1.4;;;;;;;7.1;100.0;101280;;;;
2022/11/29 02:35:10;;;;;;;1.4;1.4;;;;;;;7.1;100.0;101280;;;;
2022/11/29 02:36:00;;;;;;;1.4;1.4;;;;;;;7.1;100.0;101280;;;;
2022/11/29 02:37:00;;;;;;;1.4;1.4;;;;;;;7.1;100.0;101280;;;;
2022/11/29 02:38:00;;;;;;;1.4;1.4;;;;;;;7.1;100.0;101280;;;;
2022/11/29 02:39:03;;;;;;;1.4;1.4;;;;;;;7.1;100.0;101280;;;;
2022/11/29 02:40:10;;;;;;;1.4;1.4;;;;;;;7.1;100.0;101280;;;;
2022/11/29 02:41:01;;;;;;;1.4;1.4;;;;;;;7.1;100.0;101280;;;;
2022/11/29 02:42:10;;;;;;;1.4;1.4;;;;;;;7.1;100.0;101290;;;;
2022/11/29 02:43:00;;;;;;;1.4;1.4;;;;;;;7.1;100.0;101290;;;;
2022/11/29 02:44:10;;;;;;;1.4;1.4;;;;;;;7.0;100.0;101290;;;;
2022/11/29 02:45:10;;;;;;;2.0;1.9;;;;;;;7.1;100.0;101290;;;;
2022/11/29 02:46:07;;;;;;;2.0;1.9;;;;;;;7.1;100.0;101290;;;;
2022/11/29 02:47:00;;;;;;;2.0;1.9;;;;;;;7.1;100.0;101290;;;;
2022/11/29 02:48:10;;;;;;;2.0;1.9;;;;;;;7.1;100.0;101290;;;;
2022/11/29 02:49:10;;;;;;;2.0;1.9;;;;;;;7.0;100.0;101290;;;;
2022/11/29 02:50:10;;;;;;;2.0;1.9;;;;;;;7.0;100.0;101290;;;;
2022/11/29 02:51:05;;;;;;;2.0;1.9;;;;;;;7.1;100.0;101290;;;;
2022/11/29 02:52:01;;;;;;;2.0;1.9;;;;;;;7.1;100.0;101290;;;;
2022/11/29 02:53:03;;;;;;;2.0;1.9;;;;;;;7.1;100.0;101290;;;;
2022/11/29 02:54:10;;;;;;;2.0;1.9;;;;;;;7.1;100.0;101290;;;;
2022/11/29 02:55:05;;;;;;;2.0;1.9;;;;;;;7.1;100.0;101290;;;;
2022/11/29 02:56:03;;;;;;;2.0;1.9;;;;;;;7.1;100.0;101290;;;;
2022/11/29 02:57:06;;;;;;;2.0;1.9;;;;;;;7.1;100.0;101290;;;;
2022/11/29 02:58:07;;;;;;;2.0;1.9;;;;;;;7.1;100.0;101290;;;;
2022/11/29 02:59:00;;;;;;;2.0;1.9;;;;;;;7.1;100.0;101290;;;;
2022/11/29 03:00:09;;;;;;;2.0;1.9;;;;;;;7.1;100.0;101300;;;;
2022/11/29 03:01:10;;;;;;;2.0;1.9;;;;;;;7.1;100.0;101300;;;;
2022/11/29 03:02:10;;;;;;;2.0;1.9;;;;;;;7.1;100.0;101300;;;;
2022/11/29 03:03:10;;;;;;;2.0;1.9;;;;;;;7.1;100.0;101300;;;;
2022/11/29 03:04:00;;;;;;;2.0;1.9;;;;;;;7.1;100.0;101300;;;;
2022/11/29 03:05:10;;;;;;;3.9;3.6;;;;;;;7.1;100.0;101310;;;;
2022/11/29 03:06:10;;;;;;;3.9;3.6;;;;;;;7.1;100.0;101310;;;;
2022/11/29 03:07:04;;;;;;;3.9;3.6;;;;;;;7.1;100.0;101310;;;;
2022/11/29 03:08:10;;;;;;;3.9;3.6;;;;;;;7.1;100.0;101310;;;;
2022/11/29 03:09:06;;;;;;;3.9;3.6;;;;;;;7.1;100.0;101310;;;;
2022/11/29 03:10:04;;;;;;;3.9;3.6;;;;;;;7.1;100.0;101310;;;;
2022/11/29 03:11:10;;;;;;;3.9;3.6;;;;;;;7.1;100.0;101320;;;;
2022/11/29 03:12:10;;;;;;;3.9;3.6;;;;;;;7.1;100.0;101320;;;;
2022/11/29 03:13:03;;;;;;;3.9;3.6;;;;;;;7.1;100.0;101320;;;;
2022/11/29 03:14:10;;;;;;;3.9;3.6;;;;;;;7.1;100.0;101320;;;;
2022/11/29 03:15:10;;;;;;;3.9;3.6;;;;;;;7.2;100.0;101320;;;;
2022/11/29 03:16:10;;;;;;;3.9;3.6;;;;;;;7.2;100.0;101320;;;;
2022/11/29 03:17:03;;;;;;;3.9;3.6;;;;;;;7.2;100.0;101320;;;;
2022/11/29 03:18:02;;;;;;;3.9;3.6;;;;;;;7.2;100.0;101320;;;;
2022/11/29 03:19:09;;;;;;;3.9;3.6;;;;;;;7.3;100.0;101320;;;;
2022/11/29 03:20:02;;;;;;;3.9;3.6;;;;;;;7.3;100.0;101320;;;;
2022/11/29 03:21:07;;;;;;;3.9;3.6;;;;;;;7.2;100.0;101330;;;;
2022/11/29 03:22:07;;;;;;;3.9;3.6;;;;;;;7.2;100.0;101330;;;;
2022/11/29 03:23:00;;;;;;;3.9;3.6;;;;;;;7.2;100.0;101330;;;;
2022/11/29 03:24:03;;;;;;;3.9;3.6;;;;;;;7.3;100.0;101320;;;;
2022/11/29 03:25:05;;;;;;;1.4;1.4;;;;;;;7.3;100.0;101330;;;;
2022/11/29 03:26:09;;;;;;;1.4;1.4;;;;;;;7.3;100.0;101330;;;;
2022/11/29 03:27:05;;;;;;;1.4;1.4;;;;;;;7.3;100.0;101330;;;;
2022/11/29 03:28:03;;;;;;;1.4;1.4;;;;;;;7.3;100.0;101330;;;;
2022/11/29 03:29:10;;;;;;;1.4;1.4;;;;;;;7.3;100.0;101330;;;;
2022/11/29 03:30:02;;;;;;;1.4;1.4;;;;;;;7.3;100.0;101330;;;;
2022/11/29 03:31:04;;;;;;;1.4;1.4;;;;;;;7.3;100.0;101330;;;;
2022/11/29 03:32:07;;;;;;;1.4;1.4;;;;;;;7.3;100.0;101330;;;;
2022/11/29 03:33:08;;;;;;;1.4;1.4;;;;;;;7.3;100.0;101340;;;;
2022/11/29 03:34:00;;;;;;;1.4;1.4;;;;;;;7.3;100.0;101340;;;;
2022/11/29 03:35:01;;;;;;;1.4;1.4;;;;;;;7.3;100.0;101340;;;;
2022/11/29 03:36:10;;;;;;;1.4;1.4;;;;;;;7.2;100.0;101340;;;;
2022/11/29 03:37:06;;;;;;;1.4;1.4;;;;;;;7.2;100.0;101340;;;;
2022/11/29 03:38:10;;;;;;;1.4;1.4;;;;;;;7.2;100.0;101340;;;;
2022/11/29 03:39:03;;;;;;;1.4;1.4;;;;;;;7.2;100.0;101330;;;;
2022/11/29 03:40:06;;;;;;;1.4;1.4;;;;;;;7.2;100.0;101330;;;;
2022/11/29 03:41:07;;;;;;;1.4;1.4;;;;;;;7.3;100.0;101340;;;;
2022/11/29 03:42:02;;;;;;;1.4;1.4;;;;;;;7.3;100.0;101340;;;;
2022/11/29 03:43:05;;;;;;;1.4;1.4;;;;;;;7.3;100.0;101340;;;;
2022/11/29 03:44:07;;;;;;;1.4;1.4;;;;;;;7.3;100.0;101340;;;;
2022/11/29 03:45:10;;;;;;;1.3;1.3;;;;;;;7.2;100.0;101340;;;;
2022/11/29 03:46:03;;;;;;;1.3;1.3;;;;;;;7.2;100.0;101340;;;;
2022/11/29 03:47:05;;;;;;;1.3;1.3;;;;;;;7.3;100.0;101340;;;;
2022/11/29 03:48:06;;;;;;;1.3;1.3;;;;;;;7.3;100.0;101340;;;;
2022/11/29 03:49:03;;;;;;;1.3;1.3;;;;;;;7.3;100.0;101350;;;;
2022/11/29 03:50:01;;;;;;;1.3;1.3;;;;;;;7.3;100.0;101350;;;;
2022/11/29 03:51:04;;;;;;;1.3;1.3;;;;;;;7.3;100.0;101350;;;;
2022/11/29 03:52:09;;;;;;;1.3;1.3;;;;;;;7.3;100.0;101350;;;;
2022/11/29 03:53:10;;;;;;;1.3;1.3;;;;;;;7.3;100.0;101350;;;;
2022/11/29 03:54:02;;;;;;;1.3;1.3;;;;;;;7.3;100.0;101350;;;;
2022/11/29 03:55:00;;;;;;;1.3;1.3;;;;;;;7.3;100.0;101350;;;;
2022/11/29 03:56:01;;;;;;;1.3;1.3;;;;;;;7.3;100.0;101350;;;;
2022/11/29 03:57:00;;;;;;;1.3;1.3;;;;;;;7.3;100.0;101350;;;;
2022/11/29 03:58:04;;;;;;;1.3;1.3;;;;;;;7.3;100.0;101350;;;;
2022/11/29 03:59:10;;;;;;;1.3;1.3;;;;;;;7.2;100.0;101350;;;;
2022/11/29 04:00:05;;;;;;;1.3;1.3;;;;;;;7.2;100.0;101350;;;;
2022/11/29 04:01:01;;;;;;;1.3;1.3;;;;;;;7.2;100.0;101350;;;;
2022/11/29 04:02:10;;;;;;;1.3;1.3;;;;;;;7.2;100.0;101350;;;;
2022/11/29 04:03:01;;;;;;;1.3;1.3;;;;;;;7.2;100.0;101350;;;;
2022/11/29 04:04:10;;;;;;;1.3;1.3;;;;;;;7.2;100.0;101360;;;;
2022/11/29 04:05:03;;;;;;;3.1;2.7;;;;;;;7.3;100.0;101360;;;;
2022/11/29 04:06:10;;;;;;;3.1;2.7;;;;;;;7.3;100.0;101360;;;;
2022/11/29 04:07:01;;;;;;;3.1;2.7;;;;;;;7.3;100.0;101360;;;;
2022/11/29 04:08:10;;;;;;;3.1;2.7;;;;;;;7.2;100.0;101360;;;;
2022/11/29 04:09:10;;;;;;;3.1;2.7;;;;;;;7.2;100.0;101360;;;;
2022/11/29 04:10:07;;;;;;;3.1;2.7;;;;;;;7.2;100.0;101360;;;;
2022/11/29 04:11:10;;;;;;;3.1;2.7;;;;;;;7.2;100.0;101370;;;;
2022/11/29 04:12:10;;;;;;;3.1;2.7;;;;;;;7.2;100.0;101370;;;;
2022/11/29 04:13:10;;;;;;;3.1;2.7;;;;;;;7.3;100.0;101370;;;;
2022/11/29 04:14:03;;;;;;;3.1;2.7;;;;;;;7.3;100.0;101370;;;;
2022/11/29 04:15:12;;;;;;;3.1;2.7;;;;;;;7.2;100.0;101370;;;;
2022/11/29 04:16:09;;;;;;;3.1;2.7;;;;;;;7.2;100.0;101370;;;;
2022/11/29 04:17:10;;;;;;;3.1;2.7;;;;;;;7.3;100.0;101370;;;;
2022/11/29 04:18:10;;;;;;;3.1;2.7;;;;;;;7.3;100.0;101370;;;;
2022/11/29 04:19:07;;;;;;;3.1;2.7;;;;;;;7.3;100.0;101370;;;;
2022/11/29 04:20:00;;;;;;;3.1;2.7;;;;;;;7.3;100.0;101370;;;;
2022/11/29 04:21:00;;;;;;;3.1;2.7;;;;;;;7.3;100.0;101370;;;;
2022/11/29 04:22:00;;;;;;;3.1;2.7;;;;;;;7.3;100.0;101380;;;;
2022/11/29 04:23:03;;;;;;;3.1;2.7;;;;;;;7.3;100.0;101380;;;;
2022/11/29 04:24:10;;;;;;;3.1;2.7;;;;;;;7.3;100.0;101380;;;;
2022/11/29 04:25:10;;;;;;;1.6;1.6;;;;;;;7.4;100.0;101380;;;;
2022/11/29 04:26:08;;;;;;;1.6;1.6;;;;;;;7.4;100.0;101380;;;;
2022/11/29 04:27:10;;;;;;;1.6;1.6;;;;;;;7.4;100.0;101380;;;;
2022/11/29 04:28:10;;;;;;;1.6;1.6;;;;;;;7.4;100.0;101380;;;;
2022/11/29 04:29:07;;;;;;;1.6;1.6;;;;;;;7.4;100.0;101380;;;;
2022/11/29 04:30:04;;;;;;;1.6;1.6;;;;;;;7.4;100.0;101380;;;;
2022/11/29 04:31:10;;;;;;;1.6;1.6;;;;;;;7.4;100.0;101380;;;;
2022/11/29 04:32:10;;;;;;;1.6;1.6;;;;;;;7.4;100.0;101380;;;;
2022/11/29 04:33:01;;;;;;;1.6;1.6;;;;;;;7.4;100.0;101380;;;;
2022/11/29 04:34:09;;;;;;;1.6;1.6;;;;;;;7.4;100.0;101380;;;;
2022/11/29 04:35:10;;;;;;;1.6;1.6;;;;;;;7.4;100.0;101390;;;;
2022/11/29 04:36:00;;;;;;;1.6;1.6;;;;;;;7.4;100.0;101390;;;;
2022/11/29 04:37:09;;;;;;;1.6;1.6;;;;;;;7.4;100.0;101390;;;;
2022/11/29 04:38:10;;;;;;;1.6;1.6;;;;;;;7.4;100.0;101390;;;;
2022/11/29 04:39:00;;;;;;;1.6;1.6;;;;;;;7.4;100.0;101390;;;;
2022/11/29 04:40:00;;;;;;;1.6;1.6;;;;;;;7.4;100.0;101390;;;;
2022/11/29 04:41:10;;;;;;;1.6;1.6;;;;;;;7.4;100.0;101390;;;;
2022/11/29 04:42:10;;;;;;;1.6;1.6;;;;;;;7.4;100.0;101390;;;;
2022/11/29 04:43:00;;;;;;;1.6;1.6;;;;;;;7.4;100.0;101390;;;;
2022/11/29 04:44:01;;;;;;;1.6;1.6;;;;;;;7.4;100.0;101390;;;;
2022/11/29 04:45:10;;;;;;;1.3;1.3;;;;;;;7.4;100.0;101390;;;;
2022/11/29 04:46:10;;;;;;;1.3;1.3;;;;;;;7.4;100.0;101390;;;;
2022/11/29 04:47:03;;;;;;;1.3;1.3;;;;;;;7.4;100.0;101400;;;;
2022/11/29 04:48:10;;;;;;;1.3;1.3;;;;;;;7.4;100.0;101400;;;;
2022/11/29 04:49:10;;;;;;;1.3;1.3;;;;;;;7.5;100.0;101390;;;;
2022/11/29 04:50:01;;;;;;;1.3;1.3;;;;;;;7.5;100.0;101390;;;;
2022/11/29 04:51:03;;;;;;;1.3;1.3;;;;;;;7.5;100.0;101400;;;;
2022/11/29 04:52:00;;;;;;;1.3;1.3;;;;;;;7.5;100.0;101400;;;;
2022/11/29 04:53:10;;;;;;;1.3;1.3;;;;;;;7.5;100.0;101400;;;;
2022/11/29 04:54:01;;;;;;;1.3;1.3;;;;;;;7.5;100.0;101400;;;;
2022/11/29 04:55:03;;;;;;;1.3;1.3;;;;;;;7.4;100.0;101400;;;;
2022/11/29 04:56:08;;;;;;;1.3;1.3;;;;;;;7.4;100.0;101400;;;;
2022/11/29 04:57:00;;;;;;;1.3;1.3;;;;;;;7.4;100.0;101400;;;;
2022/11/29 04:58:00;;;;;;;1.3;1.3;;;;;;;7.3;100.0;101410;;;;
2022/11/29 04:59:03;;;;;;;1.3;1.3;;;;;;;7.4;100.0;101410;;;;
2022/11/29 05:00:06;;;;;;;1.3;1.3;;;;;;;7.4;100.0;101410;;;;
2022/11/29 05:01:11;;;;;;;1.3;1.3;;;;;;;7.5;100.0;101410;;;;
2022/11/29 05:02:10;;;;;;;1.3;1.3;;;;;;;7.5;100.0;101410;;;;
2022/11/29 05:03:06;;;;;;;1.3;1.3;;;;;;;7.5;100.0;101410;;;;
2022/11/29 05:04:05;;;;;;;1.3;1.3;;;;;;;7.5;100.0;101410;;;;
2022/11/29 05:05:10;;;;;;;1.4;1.4;;;;;;;7.5;100.0;101410;;;;
2022/11/29 05:06:07;;;;;;;1.4;1.4;;;;;;;7.5;100.0;101410;;;;
2022/11/29 05:07:10;;;;;;;1.4;1.4;;;;;;;7.5;100.0;101410;;;;
2022/11/29 05:08:08;;;;;;;1.4;1.4;;;;;;;7.5;100.0;101410;;;;
2022/11/29 05:09:06;;;;;;;1.4;1.4;;;;;;;7.5;100.0;101410;;;;
2022/11/29 05:10:10;;;;;;;1.4;1.4;;;;;;;7.5;100.0;101410;;;;
2022/11/29 05:11:01;;;;;;;1.4;1.4;;;;;;;7.5;100.0;101410;;;;
2022/11/29 05:12:10;;;;;;;1.4;1.4;;;;;;;7.5;100.0;101410;;;;
2022/11/29 05:13:00;;;;;;;1.4;1.4;;;;;;;7.5;100.0;101410;;;;
2022/11/29 05:14:01;;;;;;;1.4;1.4;;;;;;;7.4;100.0;101410;;;;
2022/11/29 05:15:10;;;;;;;1.4;1.4;;;;;;;7.4;100.0;101420;;;;
2022/11/29 05:16:06;;;;;;;1.4;1.4;;;;;;;7.4;100.0;101420;;;;
2022/11/29 05:17:08;;;;;;;1.4;1.4;;;;;;;7.4;100.0;101420;;;;
2022/11/29 05:18:10;;;;;;;1.4;1.4;;;;;;;7.4;100.0;101420;;;;
2022/11/29 05:19:03;;;;;;;1.4;1.4;;;;;;;7.4;100.0;101420;;;;
2022/11/29 05:20:10;;;;;;;1.4;1.4;;;;;;;7.4;100.0;101420;;;;
2022/11/29 05:21:10;;;;;;;1.4;1.4;;;;;;;7.5;100.0;101420;;;;
2022/11/29 05:22:08;;;;;;;1.4;1.4;;;;;;;7.5;100.0;101420;;;;
2022/11/29 05:23:03;;;;;;;1.4;1.4;;;;;;;7.5;100.0;101430;;;;
2022/11/29 05:24:10;;;;;;;1.4;1.4;;;;;;;7.5;100.0;101430;;;;
2022/11/29 05:25:09;;;;;;;1.5;1.5;;;;;;;7.5;100.0;101430;;;;
2022/11/29 05:26:05;;;;;;;1.5;1.5;;;;;;;7.5;100.0;101430;;;;
2022/11/29 05:27:00;;;;;;;1.5;1.5;;;;;;;7.5;100.0;101430;;;;
2022/11/29 05:28:10;;;;;;;1.5;1.5;;;;;;;7.5;100.0;101430;;;;
2022/11/29 05:29:03;;;;;;;1.5;1.5;;;;;;;7.5;100.0;101430;;;;
2022/11/29 05:30:03;;;;;;;1.5;1.5;;;;;;;7.5;100.0;101430;;;;
2022/11/29 05:31:07;;;;;;;1.5;1.5;;;;;;;7.4;100.0;101430;;;;
2022/11/29 05:32:07;;;;;;;1.5;1.5;;;;;;;7.4;100.0;101430;;;;
2022/11/29 05:33:10;;;;;;;1.5;1.5;;;;;;;7.5;100.0;101440;;;;
2022/11/29 05:34:10;;;;;;;1.5;1.5;;;;;;;7.5;100.0;101440;;;;
2022/11/29 05:35:10;;;;;;;1.5;1.5;;;;;;;7.5;100.0;101440;;;;
2022/11/29 05:36:10;;;;;;;1.5;1.5;;;;;;;7.5;100.0;101440;;;;
2022/11/29 05:37:00;;;;;;;1.5;1.5;;;;;;;7.5;100.0;101440;;;;
2022/11/29 05:38:01;;;;;;;1.5;1.5;;;;;;;7.5;100.0;101440;;;;
2022/11/29 05:39:01;;;;;;;1.5;1.5;;;;;;;7.5;100.0;101440;;;;
2022/11/29 05:40:00;;;;;;;1.5;1.5;;;;;;;7.5;100.0;101440;;;;
2022/11/29 05:41:07;;;;;;;1.5;1.5;;;;;;;7.6;100.0;101450;;;;
2022/11/29 05:42:01;;;;;;;1.5;1.5;;;;;;;7.6;100.0;101450;;;;
2022/11/29 05:43:07;;;;;;;1.5;1.5;;;;;;;7.6;100.0;101450;;;;
2022/11/29 05:44:00;;;;;;;1.5;1.5;;;;;;;7.6;100.0;101450;;;;
2022/11/29 05:45:03;;;;;;;1.3;1.3;;;;;;;7.6;100.0;101450;;;;
2022/11/29 05:46:08;;;;;;;1.3;1.3;;;;;;;7.6;100.0;101450;;;;
2022/11/29 05:47:01;;;;;;;1.3;1.3;;;;;;;7.6;100.0;101450;;;;
2022/11/29 05:48:06;;;;;;;1.3;1.3;;;;;;;7.6;100.0;101450;;;;
2022/11/29 05:49:08;;;;;;;1.3;1.3;;;;;;;7.6;100.0;101450;;;;
2022/11/29 05:50:10;;;;;;;1.3;1.3;;;;;;;7.6;100.0;101450;;;;
2022/11/29 05:51:10;;;;;;;1.3;1.3;;;;;;;7.6;100.0;101460;;;;
2022/11/29 05:52:10;;;;;;;1.3;1.3;;;;;;;7.6;100.0;101460;;;;
2022/11/29 05:53:01;;;;;;;1.3;1.3;;;;;;;7.6;100.0;101460;;;;
2022/11/29 05:54:10;;;;;;;1.3;1.3;;;;;;;7.6;100.0;101460;;;;
2022/11/29 05:55:03;;;;;;;1.3;1.3;;;;;;;7.7;100.0;101470;;;;
2022/11/29 05:56:08;;;;;;;1.3;1.3;;;;;;;7.7;100.0;101470;;;;
2022/11/29 05:57:10;;;;;;;1.3;1.3;;;;;;;7.6;100.0;101470;;;;
2022/11/29 05:58:07;;;;;;;1.3;1.3;;;;;;;7.6;100.0;101470;;;;
2022/11/29 05:59:04;;;;;;;1.3;1.3;;;;;;;7.6;100.0;101480;;;;
2022/11/29 06:00:01;;;;;;;1.3;1.3;;;;;;;7.6;100.0;101480;;;;
2022/11/29 06:01:00;;;;;;;1.3;1.3;;;;;;;7.6;100.0;101480;;;;
2022/11/29 06:02:10;;;;;;;1.3;1.3;;;;;;;7.6;100.0;101470;;;;
2022/11/29 06:03:08;;;;;;;1.3;1.3;;;;;;;7.6;100.0;101480;;;;
2022/11/29 06:04:04;;;;;;;2.2;2.1;;;;;;;7.6;100.0;101480;;;;
2022/11/29 06:05:12;;;;;;;2.2;2.1;;;;;;;7.5;100.0;101480;;;;
2022/11/29 06:06:10;;;;;;;2.2;2.1;;;;;;;7.5;100.0;101480;;;;
2022/11/29 06:07:10;;;;;;;2.2;2.1;;;;;;;7.6;100.0;101480;;;;
2022/11/29 06:08:07;;;;;;;2.2;2.1;;;;;;;7.6;100.0;101480;;;;
2022/11/29 06:09:10;;;;;;;2.2;2.1;;;;;;;7.6;100.0;101480;;;;
2022/11/29 06:10:04;;;;;;;2.2;2.1;;;;;;;7.6;100.0;101480;;;;
2022/11/29 06:11:04;;;;;;;2.2;2.1;;;;;;;7.6;100.0;101490;;;;
2022/11/29 06:12:04;;;;;;;2.2;2.1;;;;;;;7.6;100.0;101490;;;;
2022/11/29 06:13:10;;;;;;;2.2;2.1;;;;;;;7.6;100.0;101490;;;;
2022/11/29 06:14:01;;;;;;;2.2;2.1;;;;;;;7.6;100.0;101490;;;;
2022/11/29 06:15:10;;;;;;;2.2;2.1;;;;;;;7.6;100.0;101490;;;;
2022/11/29 06:16:08;;;;;;;2.2;2.1;;;;;;;7.6;100.0;101490;;;;
2022/11/29 06:17:10;;;;;;;2.2;2.1;;;;;;;7.6;100.0;101490;;;;
2022/11/29 06:18:10;;;;;;;2.2;2.1;;;;;;;7.6;100.0;101490;;;;
2022/11/29 06:19:10;;;;;;;2.2;2.1;;;;;;;7.6;100.0;101490;;;;
2022/11/29 06:20:11;;;;;;;2.2;2.1;;;;;;;7.6;100.0;101490;;;;
2022/11/29 06:21:08;;;;;;;2.2;2.1;;;;;;;7.5;100.0;101500;;;;
2022/11/29 06:22:10;;;;;;;2.2;2.1;;;;;;;7.5;100.0;101500;;;;
2022/11/29 06:23:10;;;;;;;2.2;2.1;;;;;;;7.5;100.0;101500;;;;
2022/11/29 06:24:06;;;;;;;1.4;1.4;;;;;;;7.5;100.0;101500;;;;
2022/11/29 06:25:00;;;;;;;1.4;1.4;;;;;;;7.5;100.0;101500;;;;
2022/11/29 06:26:10;;;;;;;1.4;1.4;;;;;;;7.6;100.0;101500;;;;
2022/11/29 06:27:10;;;;;;;1.4;1.4;;;;;;;7.6;100.0;101500;;;;
2022/11/29 06:28:01;;;;;;;1.4;1.4;;;;;;;7.6;100.0;101500;;;;
2022/11/29 06:29:07;;;;;;;1.4;1.4;;;;;;;7.5;100.0;101500;;;;
2022/11/29 06:30:06;;;;;;;1.4;1.4;;;;;;;7.5;100.0;101500;;;;